Time;durP1;ratioP1;P1;durP2;ratioP2;P2;SDS_P1;SDS_P2;PMS_P1;PMS_P2;Temp;Humidity;BMP_temperature;BMP_pressure;BME280_temperature;BME280_humidity;BME280_pressure;Samples;Min_cycle;Max_cycle;Signal;HPM_P1;HPM_P2
2021/09/11 00:01:13;;;;;;;29.03;23.47;;;20.20;99.90;;;;;;5052730;28;20439;-53
2021/09/11 00:03:39;;;;;;;25.43;22.80;;;20.30;99.90;;;;;;5052357;28;20883;-53
2021/09/11 00:06:06;;;;;;;23.93;21.50;;;20.00;99.90;;;;;;5052063;28;20439;-52
2021/09/11 00:08:33;;;;;;;26.20;22.30;;;20.00;99.90;;;;;;5051784;28;20432;-52
2021/09/11 00:10:59;;;;;;;25.57;22.83;;;20.00;99.90;;;;;;5052118;28;20438;-53
2021/09/11 00:13:26;;;;;;;25.83;23.23;;;19.90;99.90;;;;;;5051870;28;20976;-51
2021/09/11 00:15:54;;;;;;;24.47;21.87;;;19.90;99.90;;;;;;5052022;28;20485;-52
2021/09/11 00:18:20;;;;;;;24.13;21.80;;;19.90;99.90;;;;;;5051831;28;20443;-52
2021/09/11 00:20:47;;;;;;;29.73;23.27;;;19.90;99.90;;;;;;5051834;28;20458;-52
2021/09/11 00:23:14;;;;;;;28.27;25.37;;;19.90;99.90;;;;;;5052069;28;20848;-52
2021/09/11 00:25:41;;;;;;;26.60;24.00;;;19.90;99.90;;;;;;5052019;28;20434;-51
2021/09/11 00:28:08;;;;;;;28.33;25.43;;;19.80;99.90;;;;;;5051722;28;20454;-52
2021/09/11 00:30:34;;;;;;;27.60;24.90;;;19.90;99.90;;;;;;5051824;28;20438;-51
2021/09/11 00:33:03;;;;;;;28.60;25.70;;;20.00;99.90;;;;;;5052005;28;20455;-52
2021/09/11 00:35:29;;;;;;;26.50;23.20;;;20.10;99.90;;;;;;5051694;28;20936;-52
2021/09/11 00:37:56;;;;;;;25.43;22.97;;;19.90;99.90;;;;;;5051475;28;20431;-52
2021/09/11 00:40:22;;;;;;;23.63;21.27;;;19.90;99.90;;;;;;5052367;28;20442;-52
2021/09/11 00:42:49;;;;;;;25.60;23.17;;;19.80;99.90;;;;;;5072825;23;20525;-51
2021/09/11 00:45:16;;;;;;;24.70;22.30;;;20.00;99.90;;;;;;5031589;28;20439;-51
2021/09/11 00:47:43;;;;;;;27.90;24.97;;;19.80;99.90;;;;;;5031161;28;20433;-51
2021/09/11 00:50:12;;;;;;;25.07;22.60;;;19.80;99.90;;;;;;5031513;28;20436;-51
2021/09/11 00:52:40;;;;;;;26.27;23.57;;;19.80;99.90;;;;;;5030183;28;20475;-51
2021/09/11 00:55:09;;;;;;;25.50;23.00;;;19.80;99.90;;;;;;5031333;28;20483;-51
2021/09/11 00:57:38;;;;;;;29.07;26.30;;;19.80;99.90;;;;;;5031513;28;20427;-51
2021/09/11 01:00:06;;;;;;;26.53;23.73;;;19.70;99.90;;;;;;5031378;28;20431;-51
2021/09/11 01:02:32;;;;;;;27.80;24.80;;;19.70;99.90;;;;;;5031443;28;20828;-51
2021/09/11 01:04:59;;;;;;;28.17;25.40;;;19.80;99.90;;;;;;5031014;28;20433;-51
2021/09/11 01:07:28;;;;;;;27.07;24.47;;;19.70;99.90;;;;;;5031406;28;20807;-51
2021/09/11 01:09:54;;;;;;;29.17;26.27;;;19.70;99.90;;;;;;5031084;28;20977;-51
2021/09/11 01:12:21;;;;;;;29.00;26.30;;;19.70;99.90;;;;;;5034623;28;20437;-51
2021/09/11 01:14:48;;;;;;;28.13;25.50;;;19.90;99.90;;;;;;5035496;28;20531;-51
2021/09/11 01:17:15;;;;;;;24.87;22.53;;;19.80;99.90;;;;;;5035193;28;20791;-52
2021/09/11 01:19:41;;;;;;;25.53;23.10;;;19.60;99.90;;;;;;5035087;28;21026;-51
2021/09/11 01:22:12;;;;;;;25.70;23.20;;;19.80;99.90;;;;;;5035732;28;20848;-51
2021/09/11 01:24:54;;;;;;;24.13;21.93;;;19.60;99.90;;;;;;5035452;28;20435;-51
2021/09/11 01:27:20;;;;;;;27.30;24.40;;;19.60;99.90;;;;;;5034139;28;20454;-50
2021/09/11 01:29:52;;;;;;;26.00;23.50;;;19.60;99.90;;;;;;5034993;28;20446;-51
2021/09/11 01:32:19;;;;;;;25.23;22.60;;;19.60;99.90;;;;;;5035014;28;20410;-51
2021/09/11 01:34:45;;;;;;;27.03;24.33;;;19.60;99.90;;;;;;5035085;28;20493;-51
2021/09/11 01:37:12;;;;;;;27.30;24.60;;;19.60;99.90;;;;;;5035154;28;20414;-51
2021/09/11 01:39:39;;;;;;;26.90;24.37;;;19.70;99.90;;;;;;5034739;28;20447;-51
2021/09/11 01:42:07;;;;;;;24.83;22.63;;;19.50;99.90;;;;;;5035131;28;20431;-51
2021/09/11 01:44:34;;;;;;;28.83;26.17;;;19.50;99.90;;;;;;5034692;28;20459;-51
2021/09/11 01:47:00;;;;;;;27.43;24.83;;;19.70;99.90;;;;;;5035043;28;20942;-51
2021/09/11 01:49:27;;;;;;;28.33;25.73;;;19.80;99.90;;;;;;5034622;28;20432;-51
2021/09/11 01:51:54;;;;;;;27.07;24.37;;;19.50;99.90;;;;;;5034874;28;20442;-51
2021/09/11 01:54:20;;;;;;;30.30;27.10;;;19.50;99.90;;;;;;5034688;28;20454;-51
2021/09/11 01:56:47;;;;;;;27.00;24.40;;;19.50;99.90;;;;;;5034904;28;20474;-51
2021/09/11 01:59:15;;;;;;;25.30;23.03;;;19.50;99.90;;;;;;5034336;28;20441;-51
2021/09/11 02:01:41;;;;;;;26.23;23.83;;;19.50;99.90;;;;;;5034547;28;20436;-51
2021/09/11 02:04:08;;;;;;;27.70;24.90;;;19.50;99.90;;;;;;5034294;28;20454;-51
2021/09/11 02:06:34;;;;;;;24.60;22.30;;;19.50;99.90;;;;;;5034453;28;20435;-51
2021/09/11 02:09:01;;;;;;;25.20;22.90;;;19.50;99.90;;;;;;5034095;28;20481;-51
2021/09/11 02:11:28;;;;;;;26.50;23.80;;;19.50;99.90;;;;;;5034470;28;20439;-51
2021/09/11 02:13:54;;;;;;;26.97;24.23;;;19.50;99.90;;;;;;5034336;28;20534;-51
2021/09/11 02:16:22;;;;;;;22.80;20.80;;;19.50;99.90;;;;;;5034117;28;20481;-51
2021/09/11 02:18:49;;;;;;;25.27;22.83;;;19.50;99.90;;;;;;5033918;28;20431;-51
2021/09/11 02:21:15;;;;;;;27.30;24.80;;;19.40;99.90;;;;;;5034230;28;20443;-51
2021/09/11 02:23:42;;;;;;;23.90;21.80;;;19.40;99.90;;;;;;5034277;28;20498;-50
2021/09/11 02:26:09;;;;;;;27.33;24.70;;;19.40;99.90;;;;;;5034258;28;20442;-51
2021/09/11 02:28:36;;;;;;;25.40;23.10;;;19.40;99.90;;;;;;5033859;28;20436;-51
2021/09/11 02:31:02;;;;;;;26.40;24.00;;;19.40;99.90;;;;;;5033864;28;20468;-51
2021/09/11 02:33:30;;;;;;;25.93;23.37;;;19.40;99.90;;;;;;5034170;28;20455;-51
2021/09/11 02:35:57;;;;;;;24.03;21.73;;;19.40;99.90;;;;;;5034045;28;20983;-51
2021/09/11 02:38:23;;;;;;;28.27;25.40;;;19.50;99.90;;;;;;5033550;28;20599;-51
2021/09/11 02:40:50;;;;;;;25.03;22.43;;;19.40;99.90;;;;;;5033901;28;20529;-51
2021/09/11 02:43:16;;;;;;;26.73;24.23;;;19.30;99.90;;;;;;5033812;28;20480;-51
2021/09/11 02:45:43;;;;;;;28.07;25.40;;;19.20;99.90;;;;;;5033664;28;20442;-51
2021/09/11 02:48:09;;;;;;;28.53;25.90;;;19.40;99.90;;;;;;5033179;28;20795;-52
2021/09/11 02:50:37;;;;;;;29.93;23.63;;;19.30;99.90;;;;;;5033809;28;20441;-51
2021/09/11 02:53:04;;;;;;;26.50;23.97;;;19.30;99.90;;;;;;5033716;28;20462;-51
2021/09/11 02:55:31;;;;;;;25.10;22.90;;;19.30;99.90;;;;;;5033677;28;20472;-51
2021/09/11 02:57:57;;;;;;;23.80;21.40;;;19.30;99.90;;;;;;5033319;28;20434;-51
2021/09/11 03:00:24;;;;;;;24.57;22.00;;;19.30;99.90;;;;;;5033645;28;20809;-51
2021/09/11 03:02:50;;;;;;;26.47;23.90;;;19.30;99.90;;;;;;5033567;28;20454;-51
2021/09/11 03:05:17;;;;;;;24.87;22.67;;;19.30;99.90;;;;;;5033493;28;20436;-51
2021/09/11 03:07:45;;;;;;;28.67;25.93;;;19.30;99.90;;;;;;5033104;28;20431;-51
2021/09/11 03:10:11;;;;;;;26.57;24.03;;;19.30;99.90;;;;;;5033621;28;20436;-51
2021/09/11 03:12:38;;;;;;;25.67;23.03;;;19.30;99.90;;;;;;5033534;28;20458;-51
2021/09/11 03:15:05;;;;;;;28.93;23.97;;;19.30;99.90;;;;;;5033575;28;20779;-51
2021/09/11 03:17:32;;;;;;;26.03;22.80;;;19.30;99.90;;;;;;5033277;28;20854;-51
2021/09/11 03:19:59;;;;;;;23.23;21.03;;;19.30;99.90;;;;;;5033055;28;20449;-50
2021/09/11 03:22:25;;;;;;;24.03;21.70;;;19.30;99.90;;;;;;5033153;28;20438;-51
2021/09/11 03:24:53;;;;;;;21.23;19.23;;;19.30;99.90;;;;;;5033289;28;20438;-51
2021/09/11 03:27:20;;;;;;;24.40;22.00;;;19.30;99.90;;;;;;5033191;28;20430;-51
2021/09/11 03:29:46;;;;;;;24.87;22.47;;;19.30;99.90;;;;;;5032762;28;20439;-51
2021/09/11 03:32:13;;;;;;;20.97;19.17;;;19.30;99.90;;;;;;5032937;28;20453;-51
2021/09/11 03:34:40;;;;;;;24.07;21.20;;;19.40;99.90;;;;;;5032896;28;20446;-51
2021/09/11 03:37:06;;;;;;;25.47;22.87;;;19.40;99.90;;;;;;5032653;28;20481;-51
2021/09/11 03:39:33;;;;;;;26.83;24.07;;;19.40;99.90;;;;;;5032778;28;20774;-51
2021/09/11 03:42:01;;;;;;;24.70;22.30;;;19.40;99.90;;;;;;5032764;28;20436;-51
2021/09/11 03:44:27;;;;;;;21.67;19.67;;;19.40;99.90;;;;;;5032743;28;20466;-51
2021/09/11 03:46:54;;;;;;;26.13;23.50;;;19.40;99.90;;;;;;5032726;28;20470;-51
2021/09/11 03:49:20;;;;;;;20.80;18.93;;;19.30;99.90;;;;;;5032210;28;20939;-51
2021/09/11 03:51:47;;;;;;;24.20;21.90;;;19.40;99.90;;;;;;5032546;28;20446;-51
2021/09/11 03:54:14;;;;;;;25.33;22.70;;;19.40;99.90;;;;;;5032622;28;20509;-51
2021/09/11 03:56:40;;;;;;;25.80;23.30;;;19.40;99.90;;;;;;5032494;28;20484;-51
2021/09/11 03:59:08;;;;;;;24.00;21.60;;;19.40;99.90;;;;;;5032203;28;20501;-50
2021/09/11 04:01:35;;;;;;;24.17;21.87;;;19.40;99.90;;;;;;5032567;28;20940;-51
2021/09/11 04:04:01;;;;;;;25.90;23.43;;;19.40;99.90;;;;;;5032430;28;20463;-51
2021/09/11 04:06:28;;;;;;;25.23;22.80;;;19.40;99.90;;;;;;5032406;28;20432;-51
2021/09/11 04:08:54;;;;;;;26.80;24.10;;;19.40;99.90;;;;;;5032444;28;20955;-51
2021/09/11 04:11:21;;;;;;;25.37;23.10;;;19.50;99.90;;;;;;5032529;28;20451;-51
2021/09/11 04:13:47;;;;;;;22.77;20.57;;;19.30;99.90;;;;;;5032359;28;20455;-51
2021/09/11 04:16:15;;;;;;;24.60;22.07;;;19.30;99.90;;;;;;5032422;28;20500;-51
2021/09/11 04:18:42;;;;;;;22.03;19.97;;;19.30;99.90;;;;;;5032028;28;20523;-51
2021/09/11 04:21:09;;;;;;;26.33;23.73;;;19.30;99.90;;;;;;5032207;28;20435;-51
2021/09/11 04:23:35;;;;;;;27.73;24.37;;;19.30;99.90;;;;;;5032049;28;20455;-51
2021/09/11 04:26:02;;;;;;;25.20;22.70;;;19.30;99.90;;;;;;5032062;28;20942;-51
2021/09/11 04:28:28;;;;;;;23.53;21.23;;;19.30;99.90;;;;;;5031692;28;20462;-51
2021/09/11 04:30:55;;;;;;;25.43;23.03;;;19.30;99.90;;;;;;5032143;28;20920;-51
2021/09/11 04:33:23;;;;;;;26.20;23.57;;;19.40;99.90;;;;;;5032169;28;20869;-51
2021/09/11 04:35:49;;;;;;;23.23;21.07;;;19.60;99.90;;;;;;5032026;28;20438;-51
2021/09/11 04:38:16;;;;;;;25.77;23.17;;;19.40;99.90;;;;;;5031710;28;20438;-51
2021/09/11 04:40:42;;;;;;;24.63;22.37;;;19.40;99.90;;;;;;5032053;28;20439;-51
2021/09/11 04:43:09;;;;;;;24.90;22.33;;;19.40;99.90;;;;;;5031865;28;20471;-51
2021/09/11 04:45:36;;;;;;;24.17;21.77;;;19.50;99.90;;;;;;5031021;28;20443;-51
2021/09/11 04:48:02;;;;;;;23.67;21.57;;;19.50;99.90;;;;;;5031500;28;20441;-51
2021/09/11 04:50:30;;;;;;;23.57;21.47;;;19.50;99.90;;;;;;5031799;28;20443;-51
2021/09/11 04:52:57;;;;;;;21.50;19.40;;;19.50;99.90;;;;;;5031782;28;20451;-51
2021/09/11 04:55:24;;;;;;;22.70;20.60;;;19.60;99.90;;;;;;5031768;28;20438;-51
2021/09/11 04:57:51;;;;;;;25.80;23.53;;;19.60;99.90;;;;;;5031113;28;20478;-51
2021/09/11 05:00:17;;;;;;;24.30;21.70;;;19.60;99.90;;;;;;5031734;28;20438;-51
2021/09/11 05:02:44;;;;;;;24.10;21.70;;;19.70;99.90;;;;;;5031593;28;20465;-51
2021/09/11 05:05:11;;;;;;;22.93;20.73;;;19.70;99.90;;;;;;5031482;28;20455;-50
2021/09/11 05:07:39;;;;;;;22.27;20.33;;;19.70;99.90;;;;;;5031244;28;20446;-51
2021/09/11 05:10:06;;;;;;;22.77;20.67;;;19.70;99.90;;;;;;5031466;28;20432;-51
2021/09/11 05:12:33;;;;;;;22.60;20.40;;;19.80;99.90;;;;;;5031382;28;20555;-51
2021/09/11 05:15:00;;;;;;;20.83;19.03;;;19.80;99.90;;;;;;5031204;28;20958;-51
2021/09/11 05:17:26;;;;;;;24.77;22.33;;;19.80;99.90;;;;;;5031388;28;20524;-51
2021/09/11 05:19:53;;;;;;;25.03;22.63;;;19.90;99.90;;;;;;5030991;28;20427;-51
2021/09/11 05:22:20;;;;;;;23.50;21.00;;;19.90;99.90;;;;;;5031403;28;20440;-51
2021/09/11 05:24:48;;;;;;;23.67;21.27;;;19.70;99.90;;;;;;5031823;28;20776;-51
2021/09/11 05:27:14;;;;;;;23.77;21.57;;;20.00;99.90;;;;;;5031408;28;20427;-51
2021/09/11 05:29:41;;;;;;;22.27;20.17;;;20.00;99.90;;;;;;5030912;28;20668;-51
2021/09/11 05:32:08;;;;;;;21.50;19.50;;;20.00;99.90;;;;;;5031199;28;20428;-51
2021/09/11 05:34:34;;;;;;;22.93;20.67;;;20.10;99.90;;;;;;5031260;28;20437;-51
2021/09/11 05:37:01;;;;;;;24.67;22.40;;;20.10;99.90;;;;;;5031156;28;20476;-51
2021/09/11 05:39:27;;;;;;;22.63;20.23;;;20.20;99.90;;;;;;5030867;28;20436;-51
2021/09/11 05:41:56;;;;;;;20.80;18.90;;;20.20;99.90;;;;;;5031102;28;20895;-51
2021/09/11 05:44:22;;;;;;;24.27;22.00;;;20.30;99.90;;;;;;5030994;28;20473;-51
2021/09/11 05:46:49;;;;;;;21.40;19.27;;;20.30;99.90;;;;;;5031131;28;20778;-51
2021/09/11 05:49:15;;;;;;;23.17;20.77;;;20.40;99.90;;;;;;5030727;28;20439;-51
2021/09/11 05:51:42;;;;;;;22.43;20.13;;;20.20;99.90;;;;;;5031168;28;20461;-51
2021/09/11 05:54:09;;;;;;;23.60;21.20;;;20.40;99.90;;;;;;5030862;28;20459;-51
2021/09/11 05:56:35;;;;;;;21.73;19.60;;;20.60;99.90;;;;;;5031068;28;20484;-51
2021/09/11 05:59:03;;;;;;;21.47;19.27;;;20.70;99.90;;;;;;5034372;28;20443;-51
2021/09/11 06:01:30;;;;;;;19.57;17.77;;;20.70;99.90;;;;;;5034696;28;20802;-51
2021/09/11 06:03:57;;;;;;;16.93;15.33;;;20.70;99.90;;;;;;5034385;28;20459;-51
2021/09/11 06:06:23;;;;;;;20.60;18.40;;;20.60;99.90;;;;;;5034608;28;20537;-51
2021/09/11 06:08:50;;;;;;;20.77;18.90;;;20.70;99.90;;;;;;5034134;28;20634;-51
2021/09/11 06:11:16;;;;;;;20.37;18.43;;;20.50;99.90;;;;;;5034629;28;20440;-51
2021/09/11 06:13:43;;;;;;;19.67;17.77;;;20.70;99.90;;;;;;5034494;28;20469;-51
2021/09/11 06:16:11;;;;;;;22.10;20.00;;;20.70;99.90;;;;;;5034187;28;20937;-51
2021/09/11 06:18:37;;;;;;;19.57;17.80;;;20.70;99.90;;;;;;5033820;28;20440;-51
2021/09/11 06:21:04;;;;;;;21.70;19.47;;;20.70;99.90;;;;;;5034196;28;20817;-51
2021/09/11 06:23:31;;;;;;;18.23;16.73;;;20.70;99.90;;;;;;5034164;28;20555;-51
2021/09/11 06:25:58;;;;;;;20.17;18.30;;;20.70;99.90;;;;;;5034236;28;20446;-51
2021/09/11 06:28:25;;;;;;;18.60;16.90;;;20.70;99.90;;;;;;5033617;28;20429;-51
2021/09/11 06:30:52;;;;;;;19.87;18.07;;;20.60;99.90;;;;;;5034017;28;20503;-51
2021/09/11 06:33:20;;;;;;;21.30;19.27;;;20.70;99.90;;;;;;5033923;28;20819;-51
2021/09/11 06:35:47;;;;;;;20.20;18.30;;;20.70;99.90;;;;;;5033982;28;20437;-51
2021/09/11 06:38:14;;;;;;;20.67;18.70;;;20.70;99.90;;;;;;5033145;28;20508;-52
2021/09/11 06:40:40;;;;;;;21.97;19.83;;;20.70;99.90;;;;;;5033875;28;20925;-51
2021/09/11 06:43:07;;;;;;;20.10;18.00;;;20.80;99.90;;;;;;5061401;22;20496;-50
2021/09/11 06:45:34;;;;;;;20.57;18.67;;;20.80;99.90;;;;;;5052620;28;20543;-51
2021/09/11 06:48:00;;;;;;;20.80;18.70;;;20.60;99.90;;;;;;5053582;28;20436;-51
2021/09/11 06:50:28;;;;;;;22.00;17.47;;;20.90;99.90;;;;;;5054177;28;20795;-51
2021/09/11 06:52:55;;;;;;;20.87;18.80;;;21.00;99.90;;;;;;5053501;28;20452;-50
2021/09/11 06:55:21;;;;;;;18.37;16.50;;;21.10;99.90;;;;;;5053893;28;20441;-50
2021/09/11 06:57:48;;;;;;;18.17;16.37;;;21.20;99.90;;;;;;5053170;28;20993;-50
2021/09/11 07:00:15;;;;;;;18.43;16.73;;;21.30;99.90;;;;;;5053583;28;20779;-50
2021/09/11 07:02:42;;;;;;;18.70;17.00;;;21.30;99.90;;;;;;5053065;28;20436;-50
2021/09/11 07:05:09;;;;;;;19.00;16.87;;;21.50;99.90;;;;;;5053417;28;20821;-50
2021/09/11 07:07:37;;;;;;;19.60;17.57;;;21.60;99.90;;;;;;5053835;28;20437;-52
2021/09/11 07:10:06;;;;;;;18.30;16.57;;;21.70;99.90;;;;;;5053084;28;20789;-51
2021/09/11 07:12:33;;;;;;;18.40;16.67;;;21.70;99.90;;;;;;5053718;28;20434;-51
2021/09/11 07:15:01;;;;;;;16.17;14.67;;;21.80;99.90;;;;;;5051852;28;20464;-50
2021/09/11 07:17:28;;;;;;;16.77;15.20;;;21.80;99.90;;;;;;5053290;28;20481;-52
2021/09/11 07:19:55;;;;;;;20.40;17.43;;;21.90;99.90;;;;;;5053351;28;20843;-50
2021/09/11 07:22:21;;;;;;;17.27;15.47;;;21.80;99.90;;;;;;5053532;28;20772;-50
2021/09/11 07:24:49;;;;;;;17.30;15.60;;;21.90;99.90;;;;;;5052571;28;20450;-51
2021/09/11 07:27:17;;;;;;;20.83;18.93;;;22.00;99.90;;;;;;5052617;28;20427;-52
2021/09/11 07:29:44;;;;;;;20.50;18.37;;;22.10;99.90;;;;;;5052352;28;20944;-51
2021/09/11 07:32:11;;;;;;;19.13;17.40;;;22.10;99.90;;;;;;5052861;28;20445;-49
2021/09/11 07:34:37;;;;;;;17.70;15.90;;;22.20;99.90;;;;;;5052616;28;20466;-50
2021/09/11 07:37:05;;;;;;;18.27;16.50;;;22.20;99.90;;;;;;5052600;28;20474;-51
2021/09/11 07:39:31;;;;;;;16.77;15.17;;;22.30;99.90;;;;;;5052341;28;20434;-51
2021/09/11 07:41:59;;;;;;;17.50;15.70;;;22.30;99.90;;;;;;5052701;28;20442;-50
2021/09/11 07:44:26;;;;;;;17.30;15.67;;;22.40;99.90;;;;;;5052299;28;20484;-50
2021/09/11 07:46:52;;;;;;;17.03;15.50;;;22.20;99.90;;;;;;5052283;28;20427;-52
2021/09/11 07:49:19;;;;;;;18.03;16.43;;;22.50;99.90;;;;;;5048444;28;20461;-51
2021/09/11 07:51:46;;;;;;;16.83;15.23;;;22.60;99.90;;;;;;5054200;28;20805;-51
2021/09/11 07:54:12;;;;;;;17.80;15.97;;;22.60;99.90;;;;;;5053987;28;20465;-50
2021/09/11 07:56:39;;;;;;;18.27;16.13;;;22.60;99.90;;;;;;5051657;28;20490;-51
2021/09/11 07:59:07;;;;;;;20.60;18.60;;;22.50;99.90;;;;;;5034920;28;20445;-50
2021/09/11 08:01:34;;;;;;;18.17;16.43;;;22.50;99.90;;;;;;5031815;28;20450;-50
2021/09/11 08:04:00;;;;;;;17.10;15.60;;;22.50;99.90;;;;;;5031891;28;20550;-50
2021/09/11 08:06:27;;;;;;;18.97;16.97;;;22.50;99.90;;;;;;5034294;28;20438;-52
2021/09/11 08:08:53;;;;;;;17.27;15.63;;;22.40;99.90;;;;;;5031689;28;20518;-51
2021/09/11 08:11:20;;;;;;;19.07;17.03;;;22.40;99.90;;;;;;5032187;28;20817;-50
2021/09/11 08:13:47;;;;;;;20.47;18.40;;;22.40;99.90;;;;;;5032236;28;20456;-47
2021/09/11 08:16:15;;;;;;;19.17;17.40;;;22.40;99.90;;;;;;5031899;28;20780;-46
2021/09/11 08:18:42;;;;;;;18.73;17.03;;;22.40;99.90;;;;;;5031842;28;20491;-47
2021/09/11 08:21:08;;;;;;;18.53;16.63;;;22.50;99.90;;;;;;5031808;28;20938;-47
2021/09/11 08:23:35;;;;;;;19.87;17.87;;;22.40;99.90;;;;;;5034452;28;20470;-46
2021/09/11 08:26:04;;;;;;;19.87;17.97;;;22.50;99.90;;;;;;5037819;28;20454;-46
2021/09/11 08:28:32;;;;;;;20.33;18.33;;;22.60;99.90;;;;;;5070103;28;20438;-47
2021/09/11 08:30:58;;;;;;;19.57;17.80;;;22.60;99.90;;;;;;5072079;28;20546;-46
2021/09/11 08:33:27;;;;;;;21.60;19.70;;;22.70;99.90;;;;;;5072023;28;20974;-46
2021/09/11 08:35:54;;;;;;;20.50;18.43;;;22.70;99.90;;;;;;5071828;28;20851;-46
2021/09/11 08:38:20;;;;;;;19.80;17.70;;;22.80;99.90;;;;;;5070868;28;20500;-46
2021/09/11 08:40:47;;;;;;;20.73;18.93;;;22.80;99.90;;;;;;5071877;28;20810;-47
2021/09/11 08:43:16;;;;;;;22.03;20.07;;;22.80;99.90;;;;;;5071065;28;20810;-47
2021/09/11 08:45:43;;;;;;;20.17;18.27;;;22.90;99.90;;;;;;5071735;28;20509;-46
2021/09/11 08:48:09;;;;;;;19.93;17.93;;;23.00;99.90;;;;;;5071233;28;21015;-46
2021/09/11 08:50:38;;;;;;;20.77;18.77;;;23.00;99.90;;;;;;5054811;28;20450;-46
2021/09/11 08:53:04;;;;;;;20.90;18.83;;;23.00;99.90;;;;;;5052043;28;20539;-46
2021/09/11 08:55:31;;;;;;;20.50;18.50;;;23.10;99.90;;;;;;5051704;28;20428;-45
2021/09/11 08:58:00;;;;;;;18.77;16.90;;;23.10;99.90;;;;;;5051109;28;20515;-46
2021/09/11 09:00:38;;;;;;;18.13;16.37;;;23.10;99.90;;;;;;5051208;28;20434;-46
2021/09/11 09:03:24;;;;;;;16.23;14.70;;;22.90;99.90;;;;;;5051102;28;20841;-45
2021/09/11 09:05:52;;;;;;;17.80;16.00;;;23.20;99.90;;;;;;5052113;28;20523;-47
2021/09/11 09:08:27;;;;;;;16.60;15.20;;;23.20;99.90;;;;;;5050572;28;20435;-46
2021/09/11 09:10:54;;;;;;;18.70;15.10;;;23.30;99.90;;;;;;5051765;28;20981;-45
2021/09/11 09:13:21;;;;;;;15.17;13.80;;;23.30;99.90;;;;;;5051554;28;20457;-46
2021/09/11 09:15:48;;;;;;;15.80;14.40;;;23.30;99.90;;;;;;5051336;28;20433;-46
2021/09/11 09:18:15;;;;;;;15.83;14.30;;;23.40;99.90;;;;;;5050474;28;20473;-47
2021/09/11 09:20:43;;;;;;;15.83;13.23;;;23.50;99.90;;;;;;5051563;28;20448;-46
2021/09/11 09:23:17;;;;;;;14.07;12.67;;;23.20;99.90;;;;;;5066204;28;20557;-46
2021/09/11 09:25:44;;;;;;;13.93;12.63;;;23.60;99.90;;;;;;5050820;28;20871;-46
2021/09/11 09:28:13;;;;;;;15.30;13.87;;;23.60;99.90;;;;;;5050347;28;20433;-47
2021/09/11 09:30:41;;;;;;;13.47;12.03;;;23.70;99.90;;;;;;5050815;28;20441;-47
2021/09/11 09:33:10;;;;;;;12.37;11.27;;;23.80;99.90;;;;;;5053315;28;20464;-47
2021/09/11 09:35:36;;;;;;;13.97;12.67;;;23.80;99.90;;;;;;5054878;28;20441;-46
2021/09/11 09:38:07;;;;;;;13.27;11.87;;;23.90;99.90;;;;;;5054727;28;20989;-46
2021/09/11 09:40:44;;;;;;;13.10;12.00;;;23.90;99.90;;;;;;5055923;28;20462;-47
2021/09/11 09:43:11;;;;;;;13.30;12.20;;;24.00;99.90;;;;;;5055060;28;20472;-47
2021/09/11 09:45:39;;;;;;;15.73;12.90;;;24.00;99.90;;;;;;5054896;28;20440;-46
2021/09/11 09:48:09;;;;;;;14.90;13.53;;;24.10;99.90;;;;;;5054299;28;20524;-46
2021/09/11 09:50:37;;;;;;;13.27;11.90;;;24.20;99.90;;;;;;5054940;28;20454;-47
2021/09/11 09:53:05;;;;;;;12.67;11.43;;;24.20;99.90;;;;;;5054619;28;20464;-47
2021/09/11 09:55:32;;;;;;;12.03;11.03;;;24.30;99.90;;;;;;5054953;28;20798;-47
2021/09/11 09:58:01;;;;;;;13.70;12.40;;;24.30;99.90;;;;;;5053638;28;20481;-46
2021/09/11 10:00:28;;;;;;;15.03;12.83;;;24.40;99.90;;;;;;5053978;28;20543;-47
2021/09/11 10:02:54;;;;;;;10.70;9.73;;;24.50;99.90;;;;;;5052874;28;20781;-45
2021/09/11 10:05:24;;;;;;;11.73;10.63;;;24.50;99.90;;;;;;5054392;28;20441;-46
2021/09/11 10:08:06;;;;;;;10.93;9.93;;;24.60;99.90;;;;;;5053799;28;20466;-45
2021/09/11 10:10:35;;;;;;;11.43;10.43;;;24.70;99.90;;;;;;5054105;28;20448;-46
2021/09/11 10:13:11;;;;;;;9.90;8.90;;;24.70;99.90;;;;;;5053823;28;20461;-46
2021/09/11 10:15:50;;;;;;;11.70;10.53;;;24.80;99.90;;;;;;5054076;28;20456;-46
2021/09/11 10:18:40;;;;;;;13.77;10.13;;;24.80;99.90;;;;;;5072237;28;20477;-46
2021/09/11 10:21:27;;;;;;;10.63;9.57;;;25.00;99.90;;;;;;5073888;28;20938;-46
2021/09/11 10:24:27;;;;;;;10.17;9.37;;;25.00;99.90;;;;;;5074179;28;20451;-52
2021/09/11 10:26:54;;;;;;;10.73;9.47;;;25.00;99.90;;;;;;5073496;28;20436;-46
2021/09/11 10:29:46;;;;;;;13.70;10.33;;;24.80;99.90;;;;;;5073421;28;20801;-46
2021/09/11 10:32:18;;;;;;;11.90;10.90;;;24.80;99.90;;;;;;5073904;28;20441;-48
2021/09/11 10:34:50;;;;;;;14.03;12.93;;;24.70;99.90;;;;;;5073425;28;20477;-46
2021/09/11 10:37:46;;;;;;;15.00;13.50;;;24.40;99.90;;;;;;5074035;28;20941;-46
2021/09/11 10:40:41;;;;;;;15.43;14.13;;;24.50;99.90;;;;;;5072833;28;20422;-46
2021/09/11 10:43:19;;;;;;;15.87;14.47;;;24.50;99.90;;;;;;5036837;28;20777;-45
2021/09/11 10:45:56;;;;;;;14.27;12.97;;;24.40;99.90;;;;;;5073213;28;20429;-46
2021/09/11 10:48:48;;;;;;;14.93;13.47;;;24.30;99.90;;;;;;5072400;28;20925;-46
2021/09/11 10:51:28;;;;;;;14.80;13.47;;;24.40;99.90;;;;;;5021973;28;20457;-46
2021/09/11 10:54:09;;;;;;;14.83;13.63;;;24.40;99.90;;;;;;5033061;28;20458;-47
2021/09/11 10:56:39;;;;;;;15.33;12.20;;;24.40;99.90;;;;;;5033695;28;20451;-47
2021/09/11 10:59:23;;;;;;;14.50;12.93;;;24.40;99.90;;;;;;5052937;28;20940;-46
2021/09/11 11:02:01;;;;;;;12.67;11.63;;;24.40;99.90;;;;;;5052472;28;20457;-46
2021/09/11 11:04:29;;;;;;;13.43;12.23;;;24.40;99.90;;;;;;5052833;28;20445;-46
2021/09/11 11:06:57;;;;;;;12.10;11.10;;;24.40;99.90;;;;;;5051688;28;20540;-46
2021/09/11 11:09:24;;;;;;;11.73;10.80;;;24.50;99.90;;;;;;5045713;28;20431;-45
2021/09/11 11:11:53;;;;;;;11.73;10.73;;;24.50;99.90;;;;;;5052552;28;20450;-45
2021/09/11 11:14:20;;;;;;;11.80;10.60;;;24.60;99.90;;;;;;5052725;28;20454;-49
2021/09/11 11:16:49;;;;;;;11.97;10.90;;;24.70;99.90;;;;;;5052322;28;20560;-45
2021/09/11 11:19:25;;;;;;;10.53;9.73;;;24.80;99.90;;;;;;5052324;28;20475;-47
2021/09/11 11:21:53;;;;;;;11.93;10.70;;;24.90;99.90;;;;;;5052887;28;20435;-48
2021/09/11 11:24:20;;;;;;;10.57;9.60;;;24.90;99.90;;;;;;5052478;28;20467;-47
2021/09/11 11:26:47;;;;;;;9.67;8.77;;;25.00;99.90;;;;;;5052560;28;20431;-47
2021/09/11 11:29:14;;;;;;;9.70;8.90;;;25.00;99.90;;;;;;5052429;28;20459;-47
2021/09/11 11:31:44;;;;;;;10.00;9.03;;;25.00;99.90;;;;;;5052561;28;20442;-47
2021/09/11 11:34:12;;;;;;;10.07;9.17;;;25.00;99.90;;;;;;5052071;28;20499;-47
2021/09/11 11:36:47;;;;;;;9.77;8.87;;;25.00;99.90;;;;;;5051919;28;20462;-46
2021/09/11 11:39:28;;;;;;;15.07;13.53;;;25.00;99.90;;;;;;5051279;28;20501;-47
2021/09/11 11:41:57;;;;;;;8.97;8.20;;;25.00;99.90;;;;;;5052048;28;20792;-47
2021/09/11 11:44:24;;;;;;;8.80;8.10;;;24.90;99.90;;;;;;5051718;28;20474;-47
2021/09/11 11:46:54;;;;;;;8.10;7.40;;;24.90;99.90;;;;;;5051959;28;20438;-47
2021/09/11 11:49:21;;;;;;;8.97;8.07;;;24.80;99.90;;;;;;5051339;28;20781;-47
2021/09/11 11:51:54;;;;;;;8.30;7.40;;;24.70;99.90;;;;;;5052011;28;20437;-47
2021/09/11 11:54:22;;;;;;;8.60;7.90;;;24.70;99.90;;;;;;5051488;28;20490;-47
2021/09/11 11:56:50;;;;;;;7.73;7.13;;;24.60;99.90;;;;;;5051275;28;20444;-47
2021/09/11 11:59:24;;;;;;;7.40;6.80;;;24.50;99.90;;;;;;5051487;28;20846;-47
2021/09/11 12:01:51;;;;;;;7.10;6.40;;;24.50;99.90;;;;;;5051897;28;20506;-46
2021/09/11 12:04:20;;;;;;;7.67;7.07;;;24.50;99.90;;;;;;5051750;28;20466;-47
2021/09/11 12:06:51;;;;;;;7.10;6.50;;;24.50;99.90;;;;;;5051767;28;20508;-48
2021/09/11 12:09:19;;;;;;;6.47;5.83;;;24.50;99.90;;;;;;5051292;28;20438;-47
2021/09/11 12:11:47;;;;;;;7.20;6.50;;;24.30;99.90;;;;;;5051621;28;20442;-46
2021/09/11 12:14:15;;;;;;;6.43;5.83;;;24.50;99.90;;;;;;5050954;28;20558;-47
2021/09/11 12:16:43;;;;;;;7.00;6.33;;;24.50;99.90;;;;;;5051531;28;20438;-46
2021/09/11 12:19:18;;;;;;;6.87;6.27;;;24.50;99.90;;;;;;5050971;28;20474;-46
2021/09/11 12:21:45;;;;;;;5.70;5.20;;;24.40;99.90;;;;;;5051658;28;20434;-47
2021/09/11 12:24:22;;;;;;;5.73;5.20;;;24.50;99.90;;;;;;5050956;28;20955;-46
2021/09/11 12:26:48;;;;;;;5.83;5.30;;;24.60;99.90;;;;;;5051088;28;20492;-46
2021/09/11 12:29:16;;;;;;;6.33;5.83;;;24.60;99.90;;;;;;5049604;28;20450;-47
2021/09/11 12:31:55;;;;;;;8.37;5.87;;;24.80;99.90;;;;;;5050722;28;20437;-47
2021/09/11 12:34:23;;;;;;;6.73;4.97;;;24.80;99.90;;;;;;5051212;28;20466;-46